createdAt,value
2019-02-14T00:00:48.382Z,81.29
2019-02-14T00:03:17.012Z,81.35
2019-02-14T00:05:45.882Z,81.15
2019-02-14T00:08:14.516Z,81.23
2019-02-14T00:10:43.150Z,81.23
2019-02-14T00:13:11.786Z,81.52
2019-02-14T00:15:40.396Z,81.67
2019-02-14T00:18:09.033Z,81.83
2019-02-14T00:20:37.662Z,81.92
2019-02-14T00:23:06.297Z,81.86
2019-02-14T00:25:35.188Z,81.77
2019-02-14T00:28:03.812Z,81.78
2019-02-14T00:30:32.440Z,81.26
2019-02-14T00:33:01.439Z,81.47
2019-02-14T00:35:30.069Z,81.64
2019-02-14T00:37:59.014Z,81.92
2019-02-14T00:40:27.635Z,81.33
2019-02-14T00:42:56.255Z,81.42
2019-02-14T00:45:25.165Z,81.38
2019-02-14T00:47:54.156Z,81.39
2019-02-14T00:50:22.780Z,81.28
2019-02-14T00:52:51.430Z,81.56
2019-02-14T00:55:20.309Z,81.72
2019-02-14T00:57:48.936Z,81.46
2019-02-14T01:00:17.880Z,81.64
2019-02-14T01:02:46.514Z,81.49
2019-02-14T01:05:16.408Z,81.52
2019-02-14T01:07:43.771Z,81.68
2019-02-14T01:10:12.391Z,81.77
2019-02-14T01:12:41.068Z,81.73
2019-02-14T01:15:09.693Z,81.73
2019-02-14T01:17:38.333Z,81.55
2019-02-14T01:20:06.957Z,81.26
2019-02-14T01:22:35.595Z,81.38
2019-02-14T01:25:04.514Z,81.25
2019-02-14T01:27:33.407Z,81.04
2019-02-14T01:30:02.043Z,81.48
2019-02-14T01:32:30.685Z,81.72
2019-02-14T01:34:59.335Z,81.44
2019-02-14T01:37:27.966Z,81.44
2019-02-14T01:39:56.580Z,81.09
2019-02-14T01:42:25.217Z,80.90
2019-02-14T01:44:53.842Z,81.30
2019-02-14T01:47:22.481Z,81.08
2019-02-14T01:49:51.457Z,80.99
2019-02-14T01:52:20.449Z,81.31
2019-02-14T01:54:49.094Z,81.48
2019-02-14T01:57:18.019Z,81.84
2019-02-14T01:59:46.661Z,81.49
2019-02-14T02:02:15.279Z,81.52
2019-02-14T02:04:43.912Z,81.34
2019-02-14T02:07:12.863Z,81.41
2019-02-14T02:09:41.850Z,81.34
2019-02-14T02:12:10.466Z,80.98
2019-02-14T02:14:39.103Z,81.04
2019-02-14T02:17:07.758Z,81.19
2019-02-14T02:19:36.347Z,81.14
2019-02-14T02:22:05.274Z,81.30
2019-02-14T02:24:33.907Z,81.30
2019-02-14T02:27:02.528Z,80.61
2019-02-14T02:29:31.185Z,80.79
2019-02-14T02:31:59.890Z,81.04
2019-02-14T02:34:28.790Z,81.04
2019-02-14T02:36:57.431Z,81.60
2019-02-14T02:39:26.059Z,81.18
2019-02-14T02:41:55.052Z,81.09
2019-02-14T02:44:23.685Z,81.01
2019-02-14T02:46:52.358Z,81.04
2019-02-14T02:49:20.950Z,81.37
2019-02-14T02:51:49.574Z,81.43
2019-02-14T02:54:18.209Z,80.98
2019-02-14T02:56:46.847Z,80.89
2019-02-14T02:59:15.478Z,80.77
2019-02-14T03:01:44.100Z,81.19
2019-02-14T03:04:12.760Z,81.00
2019-02-14T03:06:41.378Z,81.09
2019-02-14T03:09:10.026Z,81.20
2019-02-14T03:11:38.645Z,80.87
2019-02-14T03:14:07.642Z,80.84
2019-02-14T03:16:36.631Z,81.11
2019-02-14T03:19:05.606Z,81.17
2019-02-14T03:21:34.504Z,80.91
2019-02-14T03:24:03.491Z,80.89
2019-02-14T03:26:32.121Z,80.74
2019-02-14T03:29:01.058Z,80.79
2019-02-14T03:31:29.700Z,80.69
2019-02-14T03:33:58.328Z,80.83
2019-02-14T03:36:26.954Z,81.04
2019-02-14T03:38:55.604Z,81.08
2019-02-14T03:41:24.604Z,81.24
2019-02-14T03:43:53.255Z,81.17
2019-02-14T03:46:21.888Z,81.11
2019-02-14T03:48:50.845Z,80.75
2019-02-14T03:51:19.505Z,80.85
2019-02-14T03:53:48.108Z,80.84
2019-02-14T03:56:17.102Z,80.78
2019-02-14T03:58:45.737Z,80.65
2019-02-14T04:01:14.678Z,80.78
2019-02-14T04:03:43.312Z,81.00
2019-02-14T04:06:11.951Z,80.95
2019-02-14T04:08:40.566Z,80.85
2019-02-14T04:11:09.511Z,81.12
2019-02-14T04:13:38.146Z,81.03
2019-02-14T04:16:06.777Z,80.94
2019-02-14T04:18:35.417Z,80.78
2019-02-14T04:21:04.044Z,80.67
2019-02-14T04:23:32.678Z,80.80
2019-02-14T04:26:01.327Z,80.61
2019-02-14T04:28:29.946Z,80.78
2019-02-14T04:30:58.588Z,80.86
2019-02-14T04:33:27.217Z,80.98
2019-02-14T04:35:55.850Z,80.89
2019-02-14T04:38:24.473Z,81.05
2019-02-14T04:40:53.417Z,81.11
2019-02-14T04:43:22.306Z,80.98
2019-02-14T04:45:51.289Z,81.33
2019-02-14T04:48:19.923Z,81.31
2019-02-14T04:50:48.578Z,81.09
2019-02-14T04:53:17.566Z,81.21
2019-02-14T04:55:46.541Z,81.17
2019-02-14T04:58:15.182Z,81.18
2019-02-14T05:00:43.816Z,81.22
2019-02-14T05:03:12.443Z,81.02
2019-02-14T05:05:41.087Z,81.01
2019-02-14T05:08:09.706Z,81.02
2019-02-14T05:10:38.642Z,81.09
2019-02-14T05:13:07.630Z,81.22
2019-02-14T05:15:36.266Z,81.33
2019-02-14T05:18:05.211Z,81.68
2019-02-14T05:20:33.836Z,81.58
2019-02-14T05:23:02.459Z,81.57
2019-02-14T05:25:31.452Z,81.28
2019-02-14T05:28:00.084Z,81.42
2019-02-14T05:30:28.706Z,81.28
2019-02-14T05:32:57.338Z,81.31
2019-02-14T05:35:26.304Z,81.34
2019-02-14T05:37:54.952Z,81.48
2019-02-14T05:40:23.575Z,81.32
2019-02-14T05:42:52.210Z,81.22
2019-02-14T05:45:20.840Z,81.41
2019-02-14T05:47:49.478Z,81.33
2019-02-14T05:50:18.098Z,81.38
2019-02-14T05:52:47.090Z,81.26
2019-02-14T05:55:16.080Z,81.13
2019-02-14T05:57:45.063Z,81.30
2019-02-14T06:00:16.861Z,81.62
2019-02-14T06:02:45.465Z,81.41
2019-02-14T06:05:14.095Z,81.23
2019-02-14T06:07:42.735Z,81.20
2019-02-14T06:10:11.381Z,81.25
2019-02-14T06:12:40.003Z,81.25
2019-02-14T06:15:11.689Z,81.65
2019-02-14T06:17:40.327Z,81.49
2019-02-14T06:22:47.505Z,81.33
2019-02-14T06:25:16.150Z,81.39
2019-02-14T06:27:44.790Z,81.39
2019-02-14T06:30:16.382Z,81.41
2019-02-14T06:32:45.033Z,81.30
2019-02-14T06:35:13.647Z,81.61
2019-02-14T06:37:42.663Z,81.63
2019-02-14T06:40:11.303Z,81.89
2019-02-14T06:42:39.928Z,81.92
2019-02-14T06:45:08.557Z,81.77
2019-02-14T06:47:37.189Z,81.73
2019-02-14T06:50:06.171Z,81.53
2019-02-14T06:52:35.168Z,81.32
2019-02-14T06:55:04.152Z,81.38
2019-02-14T06:57:32.788Z,81.40
2019-02-14T07:00:01.434Z,81.45
2019-02-14T07:02:30.072Z,81.57
2019-02-14T07:04:58.701Z,81.54
2019-02-14T07:07:27.695Z,81.50
2019-02-14T07:09:56.347Z,81.63
2019-02-14T07:12:25.248Z,81.68
2019-02-14T07:14:53.889Z,81.56
2019-02-14T07:17:22.516Z,81.58
2019-02-14T07:19:51.157Z,81.55
2019-02-14T07:22:19.790Z,81.47
2019-02-14T07:24:48.428Z,81.61
2019-02-14T07:27:17.053Z,81.83
2019-02-14T07:29:46.035Z,81.51
2019-02-14T07:32:14.655Z,81.86
2019-02-14T07:34:43.355Z,81.69
2019-02-14T07:37:11.969Z,81.67
2019-02-14T07:39:40.606Z,81.61
2019-02-14T07:42:09.258Z,81.44
2019-02-14T07:44:38.241Z,81.43
2019-02-14T07:47:07.135Z,81.34
2019-02-14T07:49:35.761Z,81.00
2019-02-14T07:52:04.704Z,80.92
2019-02-14T07:54:33.330Z,81.47
2019-02-14T07:57:01.970Z,81.31
2019-02-14T07:59:30.600Z,81.33
2019-02-14T08:01:59.546Z,80.79
2019-02-14T08:04:28.534Z,80.34
2019-02-14T08:06:57.162Z,80.36
2019-02-14T08:09:25.799Z,80.27
2019-02-14T08:11:54.445Z,80.52
2019-02-14T08:14:23.092Z,80.85
2019-02-14T08:16:52.047Z,81.21
2019-02-14T08:19:20.699Z,81.24
2019-02-14T08:21:49.333Z,81.32
2019-02-14T08:24:17.961Z,80.55
2019-02-14T08:26:46.584Z,80.07
2019-02-14T08:29:15.582Z,79.68
2019-02-14T08:31:44.206Z,78.89
2019-02-14T08:34:13.149Z,78.53
2019-02-14T08:36:41.773Z,78.30
2019-02-14T08:39:10.400Z,77.92
2019-02-14T08:41:39.045Z,78.24
2019-02-14T08:44:07.679Z,78.55
2019-02-14T08:46:36.324Z,78.67
2019-02-14T08:49:04.946Z,78.75
2019-02-14T08:51:33.578Z,78.91
2019-02-14T08:54:02.212Z,78.84
2019-02-14T08:56:30.856Z,78.49
2019-02-14T08:58:59.481Z,77.91
2019-02-14T09:01:28.131Z,77.66
2019-02-14T09:03:56.759Z,76.51
2019-02-14T09:06:25.407Z,76.88
2019-02-14T09:08:54.410Z,76.62
2019-02-14T09:11:23.045Z,76.30
2019-02-14T09:13:51.678Z,76.22
2019-02-14T09:16:20.323Z,74.87
2019-02-14T09:18:48.946Z,73.93
2019-02-14T09:21:17.589Z,73.85
2019-02-14T09:23:46.522Z,73.93
2019-02-14T09:26:15.148Z,73.92
2019-02-14T09:28:44.087Z,73.92
2019-02-14T09:31:12.723Z,73.67
2019-02-14T09:33:41.366Z,73.67
2019-02-14T09:36:09.998Z,72.58
2019-02-14T09:38:38.609Z,72.05
2019-02-14T09:41:07.617Z,72.29
2019-02-14T09:43:36.252Z,72.80
2019-02-14T09:46:04.878Z,71.70
2019-02-14T09:48:33.503Z,70.74
2019-02-14T09:51:02.166Z,69.40
2019-02-14T09:53:30.798Z,69.14
2019-02-14T09:55:59.435Z,68.82
2019-02-14T09:58:28.056Z,69.13
2019-02-14T10:00:56.688Z,69.83
2019-02-14T10:03:25.671Z,70.41
2019-02-14T10:05:54.296Z,69.46
2019-02-14T10:08:23.250Z,70.22
2019-02-14T10:10:51.908Z,68.98
2019-02-14T10:13:20.515Z,69.79
2019-02-14T10:15:49.151Z,70.41
2019-02-14T10:18:17.764Z,71.04
2019-02-14T10:20:46.420Z,70.61
2019-02-14T10:23:15.049Z,70.50
2019-02-14T10:25:43.694Z,70.84
2019-02-14T10:28:12.312Z,71.73
2019-02-14T10:30:40.936Z,71.65
2019-02-14T10:33:09.573Z,71.27
2019-02-14T10:35:38.222Z,70.82
2019-02-14T10:38:06.868Z,71.92
2019-02-14T10:40:35.489Z,72.37
2019-02-14T10:43:04.143Z,72.51
2019-02-14T10:45:32.767Z,72.80
2019-02-14T10:48:01.406Z,72.74
2019-02-14T10:50:30.024Z,70.27
2019-02-14T10:52:59.025Z,69.77
2019-02-14T10:55:28.039Z,68.60
2019-02-14T10:57:56.686Z,68.09
2019-02-14T11:00:25.642Z,66.72
2019-02-14T11:02:54.255Z,66.12
2019-02-14T11:05:23.170Z,66.89
2019-02-14T11:07:51.812Z,66.90
2019-02-14T11:10:20.434Z,66.32
2019-02-14T11:12:49.076Z,65.73
2019-02-14T11:15:20.415Z,65.48
2019-02-14T11:17:49.287Z,65.12
2019-02-14T11:20:18.299Z,64.37
2019-02-14T11:22:48.788Z,63.88
2019-02-14T11:28:12.178Z,65.18
2019-02-14T11:30:41.163Z,64.98
2019-02-14T11:33:10.132Z,59.25
2019-02-14T11:35:39.122Z,58.29
2019-02-14T11:38:08.100Z,58.29
2019-02-14T11:40:37.092Z,56.91
2019-02-14T11:43:05.758Z,56.13
2019-02-14T11:45:34.425Z,56.13
2019-02-14T11:48:03.057Z,56.26
2019-02-14T11:50:32.040Z,56.26
2019-02-14T11:53:00.690Z,56.16
2019-02-14T11:55:29.338Z,56.16
2019-02-14T11:57:58.008Z,56.52
2019-02-14T12:00:26.626Z,55.91
2019-02-14T12:02:56.323Z,55.60
2019-02-14T12:05:23.937Z,55.69
2019-02-14T12:07:52.585Z,54.52
2019-02-14T12:10:21.511Z,54.05
2019-02-14T12:12:50.164Z,54.45
2019-02-14T12:15:18.835Z,54.45
2019-02-14T12:17:47.480Z,53.38
2019-02-14T12:20:16.086Z,53.91
2019-02-14T12:22:47.032Z,54.13
2019-02-14T12:27:55.033Z,52.96
2019-02-14T12:30:23.993Z,53.38
2019-02-14T12:32:52.656Z,53.18
2019-02-14T12:35:21.302Z,53.25
2019-02-14T12:37:50.265Z,51.76
2019-02-14T12:40:18.899Z,52.04
2019-02-14T12:42:47.538Z,52.23
2019-02-14T12:48:00.728Z,51.84
2019-02-14T12:50:29.369Z,49.44
2019-02-14T12:52:58.334Z,49.60
2019-02-14T12:55:26.974Z,49.15
2019-02-14T12:57:55.610Z,48.46
2019-02-14T13:00:24.244Z,48.44
2019-02-14T13:02:52.910Z,49.32
2019-02-14T13:05:21.558Z,49.27
2019-02-14T13:07:50.190Z,49.18
2019-02-14T13:10:18.838Z,49.40
2019-02-14T13:12:47.473Z,49.83
2019-02-14T13:15:25.291Z,49.84
2019-02-14T13:17:53.936Z,51.17
2019-02-14T13:20:22.563Z,51.36
2019-02-14T13:22:51.197Z,51.85
2019-02-14T13:25:19.858Z,52.76
2019-02-14T13:27:48.481Z,53.37
2019-02-14T13:32:56.075Z,53.66
2019-02-14T13:35:24.721Z,54.39
2019-02-14T13:37:53.373Z,55.11
2019-02-14T13:40:22.372Z,55.72
2019-02-14T13:42:50.999Z,55.58
2019-02-14T13:45:22.909Z,56.02
2019-02-14T13:47:51.546Z,56.46
2019-02-14T13:50:20.204Z,56.42
2019-02-14T13:52:48.847Z,56.28
2019-02-14T13:55:17.850Z,55.97
2019-02-14T13:57:46.489Z,55.41
2019-02-14T14:02:56.768Z,55.14
2019-02-14T14:05:25.426Z,55.95
2019-02-14T14:07:54.398Z,55.61
2019-02-14T14:10:23.035Z,55.52
2019-02-14T14:12:51.661Z,54.97
2019-02-14T14:15:20.297Z,55.45
2019-02-14T14:17:48.937Z,55.99
2019-02-14T14:20:17.581Z,55.86
2019-02-14T14:22:46.220Z,55.44
2019-02-14T14:25:15.165Z,55.14
2019-02-14T14:27:43.799Z,55.31
2019-02-14T14:30:12.459Z,55.39
2019-02-14T14:32:41.080Z,55.32
2019-02-14T14:35:11.035Z,55.43
2019-02-14T14:37:38.637Z,55.45
2019-02-14T14:40:13.580Z,54.90
2019-02-14T14:42:42.198Z,55.34
2019-02-14T14:45:11.189Z,54.53
2019-02-14T14:47:39.823Z,55.01
2019-02-14T14:50:08.763Z,54.98
2019-02-14T14:52:37.394Z,55.17
2019-02-14T14:55:06.044Z,55.52
2019-02-14T14:57:35.022Z,54.70
2019-02-14T15:00:03.673Z,55.23
2019-02-14T15:02:32.593Z,54.76
2019-02-14T15:05:01.239Z,55.14
2019-02-14T15:07:29.861Z,54.92
2019-02-14T15:09:58.505Z,55.53
2019-02-14T15:12:27.434Z,55.72
2019-02-14T15:14:56.073Z,56.15
2019-02-14T15:17:24.694Z,56.33
2019-02-14T15:19:53.328Z,56.09
2019-02-14T15:22:22.270Z,56.53
2019-02-14T15:24:50.904Z,56.36
2019-02-14T15:27:19.547Z,56.62
2019-02-14T15:29:48.165Z,56.42
2019-02-14T15:32:16.816Z,56.10
2019-02-14T15:34:45.457Z,56.01
2019-02-14T15:37:15.368Z,56.28
2019-02-14T15:39:42.709Z,55.97
2019-02-14T15:42:11.640Z,56.20
2019-02-14T15:44:40.632Z,56.03
2019-02-14T15:47:09.277Z,55.93
2019-02-14T15:49:37.923Z,56.85
2019-02-14T15:52:07.764Z,57.57
2019-02-14T15:54:35.580Z,58.34
2019-02-14T15:57:04.220Z,59.30
2019-02-14T15:59:32.861Z,60.23
2019-02-14T16:02:01.507Z,61.23
2019-02-14T16:04:31.350Z,62.05
2019-02-14T16:06:59.105Z,62.48
2019-02-14T16:09:28.087Z,63.76
2019-02-14T16:11:57.959Z,64.62
2019-02-14T16:14:25.473Z,65.54
2019-02-14T16:16:54.439Z,66.01
2019-02-14T16:19:23.430Z,66.00
2019-02-14T16:21:53.700Z,66.15
2019-02-14T16:24:21.010Z,67.13
2019-02-14T16:26:49.656Z,67.35
2019-02-14T16:29:18.299Z,67.69
2019-02-14T16:31:46.945Z,67.84
2019-02-14T16:34:15.580Z,68.46
2019-02-14T16:36:44.229Z,68.66
2019-02-14T16:39:12.886Z,69.19
2019-02-14T16:41:41.545Z,69.40
2019-02-14T16:44:10.181Z,69.23
2019-02-14T16:46:38.831Z,69.61
2019-02-14T16:49:07.745Z,70.19
2019-02-14T16:51:36.406Z,70.13
2019-02-14T16:54:05.424Z,70.24
2019-02-14T16:56:34.408Z,70.43
2019-02-14T16:59:03.405Z,70.81
2019-02-14T17:01:32.032Z,71.03
2019-02-14T17:04:00.685Z,70.95
2019-02-14T17:06:29.333Z,71.61
2019-02-14T17:08:57.988Z,71.20
2019-02-14T17:11:26.926Z,71.14
2019-02-14T17:13:56.965Z,71.85
2019-02-14T17:16:24.200Z,72.05
2019-02-14T17:18:53.198Z,71.49
2019-02-14T17:21:21.843Z,71.96
2019-02-14T17:23:50.500Z,72.49
2019-02-14T17:26:19.133Z,72.47
2019-02-14T17:28:47.774Z,72.54
2019-02-14T17:31:16.466Z,72.69
2019-02-14T17:33:45.382Z,72.69
2019-02-14T17:36:14.374Z,73.05
2019-02-14T17:38:43.030Z,73.05
2019-02-14T17:41:11.673Z,73.15
2019-02-14T17:43:40.613Z,72.99
2019-02-14T17:46:09.241Z,72.99
2019-02-14T17:48:37.881Z,72.99
2019-02-14T17:51:06.528Z,73.37
2019-02-14T17:53:35.174Z,73.58
2019-02-14T17:56:03.815Z,73.93
2019-02-14T17:58:32.479Z,74.10
2019-02-14T18:01:01.093Z,74.14
2019-02-14T18:03:30.109Z,74.12
2019-02-14T18:05:58.756Z,74.51
2019-02-14T18:08:27.453Z,74.51
2019-02-14T18:10:56.467Z,74.41
2019-02-14T18:13:25.154Z,74.88
2019-02-14T18:15:53.774Z,74.78
2019-02-14T18:18:22.417Z,75.08
2019-02-14T18:20:51.058Z,75.08
2019-02-14T18:23:19.696Z,75.09
2019-02-14T18:25:48.673Z,75.13
2019-02-14T18:28:17.661Z,75.13
2019-02-14T18:30:46.298Z,75.85
2019-02-14T18:33:14.981Z,75.71
2019-02-14T18:35:43.921Z,76.35
2019-02-14T18:38:12.549Z,76.06
2019-02-14T18:40:41.215Z,75.77
2019-02-14T18:43:09.839Z,76.04
2019-02-14T18:45:38.759Z,76.35
2019-02-14T18:48:07.392Z,76.61
2019-02-14T18:50:36.021Z,76.79
2019-02-14T18:53:04.647Z,76.68
2019-02-14T18:55:33.618Z,76.91
2019-02-14T18:58:02.269Z,76.91
2019-02-14T19:00:30.973Z,76.86
2019-02-14T19:02:59.580Z,76.84
2019-02-14T19:05:28.212Z,76.86
2019-02-14T19:07:57.234Z,76.94
2019-02-14T19:10:26.248Z,77.07
2019-02-14T19:12:54.884Z,77.14
2019-02-14T19:15:23.883Z,77.13
2019-02-14T19:17:52.504Z,77.51
2019-02-14T19:20:21.143Z,77.54
2019-02-14T19:22:49.782Z,77.45
2019-02-14T19:25:18.395Z,77.34
2019-02-14T19:27:47.028Z,77.80
2019-02-14T19:30:15.688Z,77.61
2019-02-14T19:32:44.325Z,77.58
2019-02-14T19:35:12.964Z,77.64
2019-02-14T19:37:41.593Z,77.76
2019-02-14T19:40:10.229Z,77.78
2019-02-14T19:42:39.234Z,77.80
2019-02-14T19:45:11.072Z,78.13
2019-02-14T19:47:40.057Z,78.57
2019-02-14T19:50:11.731Z,78.37
2019-02-14T19:52:40.373Z,78.00
2019-02-14T19:55:09.004Z,77.98
2019-02-14T19:57:37.970Z,77.88
2019-02-14T20:00:12.799Z,77.97
2019-02-14T20:02:41.419Z,77.92
2019-02-14T20:05:10.055Z,78.08
2019-02-14T20:07:38.697Z,78.15
2019-02-14T20:10:10.427Z,78.19
2019-02-14T20:12:39.056Z,78.31
2019-02-14T20:15:07.707Z,78.32
2019-02-14T20:17:36.371Z,78.26
2019-02-14T20:20:05.021Z,78.41
2019-02-14T20:22:33.635Z,78.55
2019-02-14T20:25:02.610Z,78.49
2019-02-14T20:27:31.589Z,78.44
2019-02-14T20:30:00.327Z,78.44
2019-02-14T20:32:28.863Z,78.69
2019-02-14T20:34:57.533Z,78.71
2019-02-14T20:37:26.180Z,78.92
2019-02-14T20:39:54.810Z,79.04
2019-02-14T20:42:23.440Z,78.88
2019-02-14T20:44:52.060Z,78.94
2019-02-14T20:47:21.067Z,79.05
2019-02-14T20:49:49.700Z,79.18
2019-02-14T20:52:18.342Z,79.07
2019-02-14T20:54:47.318Z,79.06
2019-02-14T20:57:15.980Z,79.19
2019-02-14T20:59:44.608Z,79.19
2019-02-14T21:02:13.503Z,79.40
2019-02-14T21:04:42.132Z,79.39
2019-02-14T21:07:10.778Z,79.36
2019-02-14T21:09:39.413Z,79.31
2019-02-14T21:12:08.054Z,79.37
2019-02-14T21:14:36.675Z,79.41
2019-02-14T21:17:05.321Z,79.66
2019-02-14T21:19:33.946Z,79.91
2019-02-14T21:22:02.946Z,79.64
2019-02-14T21:24:31.586Z,79.67
2019-02-14T21:27:00.225Z,79.64
2019-02-14T21:29:28.861Z,79.56
2019-02-14T21:31:57.505Z,79.57
2019-02-14T21:34:26.144Z,79.86
2019-02-14T21:36:54.793Z,79.90
2019-02-14T21:39:23.407Z,79.92
2019-02-14T21:41:52.066Z,80.04
2019-02-14T21:44:21.006Z,80.01
2019-02-14T21:46:49.627Z,79.92
2019-02-14T21:49:18.270Z,79.89
2019-02-14T21:51:46.946Z,79.92
2019-02-14T21:54:17.245Z,79.87
2019-02-14T21:56:44.164Z,80.13
2019-02-14T21:59:12.789Z,80.15
2019-02-14T22:01:41.468Z,80.01
2019-02-14T22:04:10.041Z,79.91
2019-02-14T22:06:38.669Z,80.04
2019-02-14T22:09:07.300Z,80.19
2019-02-14T22:11:35.959Z,80.10
2019-02-14T22:14:04.916Z,80.19
2019-02-14T22:16:33.551Z,80.24
2019-02-14T22:19:02.169Z,79.91
2019-02-14T22:21:30.812Z,80.08
2019-02-14T22:23:59.437Z,80.00
2019-02-14T22:26:28.089Z,80.08
2019-02-14T22:28:56.711Z,80.21
2019-02-14T22:31:25.352Z,80.38
2019-02-14T22:33:53.990Z,80.43
2019-02-14T22:36:22.651Z,80.15
2019-02-14T22:38:51.288Z,80.16
2019-02-14T22:41:19.924Z,80.24
2019-02-14T22:43:48.543Z,80.49
2019-02-14T22:46:17.188Z,80.59
2019-02-14T22:48:45.816Z,80.28
2019-02-14T22:51:14.456Z,80.21
2019-02-14T22:53:43.080Z,80.24
2019-02-14T22:56:11.704Z,80.31
2019-02-14T22:58:40.350Z,80.37
2019-02-14T23:01:08.969Z,80.43
2019-02-14T23:03:37.597Z,80.42
2019-02-14T23:06:06.545Z,80.72
2019-02-14T23:08:35.177Z,80.46
2019-02-14T23:11:03.821Z,80.49
2019-02-14T23:13:32.799Z,80.60
2019-02-14T23:16:01.412Z,80.78
2019-02-14T23:18:30.058Z,80.94
2019-02-14T23:20:59.055Z,80.59
2019-02-14T23:23:28.047Z,81.01
2019-02-14T23:25:56.705Z,81.04
2019-02-14T23:28:25.325Z,81.16
2019-02-14T23:30:53.967Z,81.08
2019-02-14T23:33:22.599Z,81.05
2019-02-14T23:35:51.223Z,80.87
2019-02-14T23:38:19.873Z,80.80
2019-02-14T23:40:48.535Z,81.14
2019-02-14T23:43:17.178Z,81.11
2019-02-14T23:45:46.101Z,80.94
2019-02-14T23:48:14.730Z,80.76
2019-02-14T23:50:43.660Z,80.67
2019-02-14T23:53:12.302Z,80.56
2019-02-14T23:55:40.941Z,80.62
2019-02-14T23:58:09.570Z,80.46
